TAF KHKS
KHKS 090625Z 0906/1006 15004KT P6SM SCT250 FM091400 16005KT P6SM OVC018 FM091600 17010G17KT P6SM OVC015 FM100200 16005KT 3SM BR VCSH OVC005=
METAR KHKS
WC KHKS
WS KHKS
WV KHKS